sensor_id;sensor_type;location;lat;lon;timestamp;P1;durP1;ratioP1;P2;durP2;ratioP2
84676;SDS011;74901;55.024;73.254;2024-02-26T00:00:26;22.30;;;7.53;;
84676;SDS011;74901;55.024;73.254;2024-02-26T00:02:55;21.60;;;6.43;;
84676;SDS011;74901;55.024;73.254;2024-02-26T00:05:24;14.40;;;5.53;;
84676;SDS011;74901;55.024;73.254;2024-02-26T00:07:53;14.48;;;5.75;;
84676;SDS011;74901;55.024;73.254;2024-02-26T00:10:22;16.85;;;6.35;;
84676;SDS011;74901;55.024;73.254;2024-02-26T00:12:52;18.08;;;6.00;;
84676;SDS011;74901;55.024;73.254;2024-02-26T00:15:21;14.00;;;4.97;;
84676;SDS011;74901;55.024;73.254;2024-02-26T00:17:51;12.57;;;4.72;;
84676;SDS011;74901;55.024;73.254;2024-02-26T00:20:19;13.75;;;5.47;;
84676;SDS011;74901;55.024;73.254;2024-02-26T00:22:48;12.95;;;5.78;;
84676;SDS011;74901;55.024;73.254;2024-02-26T00:25:17;12.38;;;5.45;;
84676;SDS011;74901;55.024;73.254;2024-02-26T00:27:45;15.15;;;5.35;;
84676;SDS011;74901;55.024;73.254;2024-02-26T00:30:16;15.15;;;6.10;;
84676;SDS011;74901;55.024;73.254;2024-02-26T00:32:45;11.77;;;6.05;;
84676;SDS011;74901;55.024;73.254;2024-02-26T00:35:14;18.98;;;6.40;;
84676;SDS011;74901;55.024;73.254;2024-02-26T00:37:46;16.08;;;5.75;;
84676;SDS011;74901;55.024;73.254;2024-02-26T00:40:15;12.18;;;4.85;;
84676;SDS011;74901;55.024;73.254;2024-02-26T00:42:45;15.73;;;5.68;;
84676;SDS011;74901;55.024;73.254;2024-02-26T00:47:44;13.35;;;5.72;;
84676;SDS011;74901;55.024;73.254;2024-02-26T00:50:13;14.48;;;6.03;;
84676;SDS011;74901;55.024;73.254;2024-02-26T00:52:42;19.98;;;5.90;;
84676;SDS011;74901;55.024;73.254;2024-02-26T00:55:11;15.75;;;6.47;;
84676;SDS011;74901;55.024;73.254;2024-02-26T00:57:40;16.05;;;5.90;;
84676;SDS011;74901;55.024;73.254;2024-02-26T01:00:09;13.45;;;6.35;;
84676;SDS011;74901;55.024;73.254;2024-02-26T01:02:38;24.75;;;9.32;;
84676;SDS011;74901;55.024;73.254;2024-02-26T01:05:09;17.52;;;5.93;;
84676;SDS011;74901;55.024;73.254;2024-02-26T01:07:38;21.23;;;7.95;;
84676;SDS011;74901;55.024;73.254;2024-02-26T01:10:07;13.20;;;4.75;;
84676;SDS011;74901;55.024;73.254;2024-02-26T01:12:36;15.05;;;6.35;;
84676;SDS011;74901;55.024;73.254;2024-02-26T01:15:05;18.30;;;6.78;;
84676;SDS011;74901;55.024;73.254;2024-02-26T01:17:34;18.80;;;8.02;;
84676;SDS011;74901;55.024;73.254;2024-02-26T01:20:05;15.80;;;6.35;;
84676;SDS011;74901;55.024;73.254;2024-02-26T01:22:36;24.73;;;8.13;;
84676;SDS011;74901;55.024;73.254;2024-02-26T01:25:07;12.65;;;6.40;;
84676;SDS011;74901;55.024;73.254;2024-02-26T01:27:37;13.13;;;5.47;;
84676;SDS011;74901;55.024;73.254;2024-02-26T01:30:07;19.48;;;6.85;;
84676;SDS011;74901;55.024;73.254;2024-02-26T01:32:36;17.50;;;6.63;;
84676;SDS011;74901;55.024;73.254;2024-02-26T01:35:05;17.70;;;7.22;;
84676;SDS011;74901;55.024;73.254;2024-02-26T01:37:39;20.65;;;8.73;;
84676;SDS011;74901;55.024;73.254;2024-02-26T01:40:08;16.67;;;6.55;;
84676;SDS011;74901;55.024;73.254;2024-02-26T01:42:38;15.75;;;7.28;;
84676;SDS011;74901;55.024;73.254;2024-02-26T01:45:09;13.85;;;6.47;;
84676;SDS011;74901;55.024;73.254;2024-02-26T01:47:47;12.95;;;5.25;;
84676;SDS011;74901;55.024;73.254;2024-02-26T01:50:19;14.80;;;6.50;;
84676;SDS011;74901;55.024;73.254;2024-02-26T01:52:50;19.85;;;7.75;;
84676;SDS011;74901;55.024;73.254;2024-02-26T01:55:20;19.23;;;6.72;;
84676;SDS011;74901;55.024;73.254;2024-02-26T01:57:52;16.58;;;7.30;;
84676;SDS011;74901;55.024;73.254;2024-02-26T02:00:24;12.48;;;5.53;;
84676;SDS011;74901;55.024;73.254;2024-02-26T02:02:54;20.35;;;6.95;;
84676;SDS011;74901;55.024;73.254;2024-02-26T02:05:23;13.45;;;6.53;;
84676;SDS011;74901;55.024;73.254;2024-02-26T02:07:55;14.25;;;5.70;;
84676;SDS011;74901;55.024;73.254;2024-02-26T02:10:24;14.63;;;6.30;;
84676;SDS011;74901;55.024;73.254;2024-02-26T02:12:54;16.05;;;5.45;;
84676;SDS011;74901;55.024;73.254;2024-02-26T02:15:24;20.88;;;7.10;;
84676;SDS011;74901;55.024;73.254;2024-02-26T02:17:53;18.38;;;5.95;;
84676;SDS011;74901;55.024;73.254;2024-02-26T02:20:26;26.83;;;6.95;;
84676;SDS011;74901;55.024;73.254;2024-02-26T02:22:59;17.23;;;5.70;;
84676;SDS011;74901;55.024;73.254;2024-02-26T02:25:28;14.50;;;6.10;;
84676;SDS011;74901;55.024;73.254;2024-02-26T02:27:57;16.33;;;6.18;;
84676;SDS011;74901;55.024;73.254;2024-02-26T02:30:27;19.20;;;6.28;;
84676;SDS011;74901;55.024;73.254;2024-02-26T02:32:57;19.05;;;7.30;;
84676;SDS011;74901;55.024;73.254;2024-02-26T02:35:28;16.35;;;7.32;;
84676;SDS011;74901;55.024;73.254;2024-02-26T02:37:57;16.20;;;5.28;;
84676;SDS011;74901;55.024;73.254;2024-02-26T02:40:26;21.75;;;7.72;;
84676;SDS011;74901;55.024;73.254;2024-02-26T02:42:55;23.27;;;7.50;;
84676;SDS011;74901;55.024;73.254;2024-02-26T02:45:23;15.43;;;6.03;;
84676;SDS011;74901;55.024;73.254;2024-02-26T02:47:52;16.75;;;5.72;;
84676;SDS011;74901;55.024;73.254;2024-02-26T02:50:21;14.35;;;5.03;;
84676;SDS011;74901;55.024;73.254;2024-02-26T02:52:51;15.25;;;6.93;;
84676;SDS011;74901;55.024;73.254;2024-02-26T02:55:20;16.83;;;6.90;;
84676;SDS011;74901;55.024;73.254;2024-02-26T02:57:49;15.88;;;6.65;;
84676;SDS011;74901;55.024;73.254;2024-02-26T03:00:17;21.10;;;7.28;;
84676;SDS011;74901;55.024;73.254;2024-02-26T03:02:48;21.13;;;7.53;;
84676;SDS011;74901;55.024;73.254;2024-02-26T03:05:17;16.48;;;7.45;;
84676;SDS011;74901;55.024;73.254;2024-02-26T03:07:46;22.30;;;7.25;;
84676;SDS011;74901;55.024;73.254;2024-02-26T03:10:18;18.98;;;7.22;;
84676;SDS011;74901;55.024;73.254;2024-02-26T03:12:47;24.60;;;8.05;;
84676;SDS011;74901;55.024;73.254;2024-02-26T03:15:16;17.77;;;7.70;;
84676;SDS011;74901;55.024;73.254;2024-02-26T03:17:45;23.73;;;8.75;;
84676;SDS011;74901;55.024;73.254;2024-02-26T03:20:13;23.70;;;8.13;;
84676;SDS011;74901;55.024;73.254;2024-02-26T03:22:45;21.92;;;7.45;;
84676;SDS011;74901;55.024;73.254;2024-02-26T03:25:14;33.30;;;9.73;;
84676;SDS011;74901;55.024;73.254;2024-02-26T03:27:44;26.40;;;8.13;;
84676;SDS011;74901;55.024;73.254;2024-02-26T03:30:13;24.33;;;8.52;;
84676;SDS011;74901;55.024;73.254;2024-02-26T03:32:42;25.77;;;9.43;;
84676;SDS011;74901;55.024;73.254;2024-02-26T03:35:12;38.25;;;11.32;;
84676;SDS011;74901;55.024;73.254;2024-02-26T03:37:41;38.97;;;11.90;;
84676;SDS011;74901;55.024;73.254;2024-02-26T03:40:10;32.78;;;11.70;;
84676;SDS011;74901;55.024;73.254;2024-02-26T03:42:40;31.67;;;12.70;;
84676;SDS011;74901;55.024;73.254;2024-02-26T03:45:11;34.72;;;12.35;;
84676;SDS011;74901;55.024;73.254;2024-02-26T03:47:40;40.63;;;11.13;;
84676;SDS011;74901;55.024;73.254;2024-02-26T03:50:09;40.88;;;13.02;;
84676;SDS011;74901;55.024;73.254;2024-02-26T03:52:38;25.30;;;11.05;;
84676;SDS011;74901;55.024;73.254;2024-02-26T03:55:07;33.22;;;12.75;;
84676;SDS011;74901;55.024;73.254;2024-02-26T03:57:36;27.05;;;12.10;;
84676;SDS011;74901;55.024;73.254;2024-02-26T04:00:05;26.98;;;10.85;;
84676;SDS011;74901;55.024;73.254;2024-02-26T04:02:40;35.05;;;11.02;;
84676;SDS011;74901;55.024;73.254;2024-02-26T04:05:09;26.30;;;12.15;;
84676;SDS011;74901;55.024;73.254;2024-02-26T04:07:38;39.50;;;11.48;;
84676;SDS011;74901;55.024;73.254;2024-02-26T04:10:11;32.13;;;11.82;;
84676;SDS011;74901;55.024;73.254;2024-02-26T04:12:40;25.45;;;9.15;;
84676;SDS011;74901;55.024;73.254;2024-02-26T04:15:10;24.95;;;9.25;;
84676;SDS011;74901;55.024;73.254;2024-02-26T04:17:41;23.77;;;8.80;;
84676;SDS011;74901;55.024;73.254;2024-02-26T04:20:12;23.38;;;9.25;;
84676;SDS011;74901;55.024;73.254;2024-02-26T04:22:43;23.60;;;8.10;;
84676;SDS011;74901;55.024;73.254;2024-02-26T04:25:12;23.05;;;8.48;;
84676;SDS011;74901;55.024;73.254;2024-02-26T04:27:41;26.48;;;8.75;;
84676;SDS011;74901;55.024;73.254;2024-02-26T04:30:10;25.80;;;9.07;;
84676;SDS011;74901;55.024;73.254;2024-02-26T04:32:41;24.50;;;9.70;;
84676;SDS011;74901;55.024;73.254;2024-02-26T04:35:10;25.33;;;9.23;;
84676;SDS011;74901;55.024;73.254;2024-02-26T04:37:38;22.48;;;8.95;;
84676;SDS011;74901;55.024;73.254;2024-02-26T04:40:07;26.02;;;10.40;;
84676;SDS011;74901;55.024;73.254;2024-02-26T04:42:37;19.42;;;6.63;;
84676;SDS011;74901;55.024;73.254;2024-02-26T04:45:06;17.20;;;8.57;;
84676;SDS011;74901;55.024;73.254;2024-02-26T04:47:35;14.35;;;6.50;;
84676;SDS011;74901;55.024;73.254;2024-02-26T04:50:06;19.52;;;7.45;;
84676;SDS011;74901;55.024;73.254;2024-02-26T04:52:36;18.00;;;7.75;;
84676;SDS011;74901;55.024;73.254;2024-02-26T04:55:05;14.30;;;6.03;;
84676;SDS011;74901;55.024;73.254;2024-02-26T05:00:02;17.00;;;7.72;;
84676;SDS011;74901;55.024;73.254;2024-02-26T05:02:31;19.95;;;8.50;;
84676;SDS011;74901;55.024;73.254;2024-02-26T05:05:04;22.70;;;7.53;;
84676;SDS011;74901;55.024;73.254;2024-02-26T05:07:39;16.95;;;7.57;;
84676;SDS011;74901;55.024;73.254;2024-02-26T05:10:09;23.35;;;7.90;;
84676;SDS011;74901;55.024;73.254;2024-02-26T05:12:38;21.23;;;8.57;;
84676;SDS011;74901;55.024;73.254;2024-02-26T05:15:09;17.67;;;7.07;;
84676;SDS011;74901;55.024;73.254;2024-02-26T05:17:42;15.48;;;6.55;;
84676;SDS011;74901;55.024;73.254;2024-02-26T05:20:12;18.15;;;6.65;;
84676;SDS011;74901;55.024;73.254;2024-02-26T05:22:41;20.85;;;8.80;;
84676;SDS011;74901;55.024;73.254;2024-02-26T05:25:10;20.00;;;7.97;;
84676;SDS011;74901;55.024;73.254;2024-02-26T05:27:39;17.92;;;8.15;;
84676;SDS011;74901;55.024;73.254;2024-02-26T05:30:08;20.52;;;8.05;;
84676;SDS011;74901;55.024;73.254;2024-02-26T05:35:06;19.48;;;8.18;;
84676;SDS011;74901;55.024;73.254;2024-02-26T05:37:37;18.70;;;8.57;;
84676;SDS011;74901;55.024;73.254;2024-02-26T05:40:06;21.10;;;8.27;;
84676;SDS011;74901;55.024;73.254;2024-02-26T05:42:35;21.63;;;8.98;;
84676;SDS011;74901;55.024;73.254;2024-02-26T05:45:04;18.92;;;7.97;;
84676;SDS011;74901;55.024;73.254;2024-02-26T05:47:34;21.30;;;7.68;;
84676;SDS011;74901;55.024;73.254;2024-02-26T05:50:08;19.63;;;7.45;;
84676;SDS011;74901;55.024;73.254;2024-02-26T05:52:41;14.60;;;6.05;;
84676;SDS011;74901;55.024;73.254;2024-02-26T05:55:10;13.63;;;7.05;;
84676;SDS011;74901;55.024;73.254;2024-02-26T05:57:39;21.38;;;7.65;;
84676;SDS011;74901;55.024;73.254;2024-02-26T06:00:08;17.77;;;6.80;;
84676;SDS011;74901;55.024;73.254;2024-02-26T06:02:38;15.07;;;6.20;;
84676;SDS011;74901;55.024;73.254;2024-02-26T06:05:07;21.98;;;8.60;;
84676;SDS011;74901;55.024;73.254;2024-02-26T06:07:36;19.17;;;7.80;;
84676;SDS011;74901;55.024;73.254;2024-02-26T06:10:07;18.70;;;7.82;;
84676;SDS011;74901;55.024;73.254;2024-02-26T06:12:37;20.13;;;8.27;;
84676;SDS011;74901;55.024;73.254;2024-02-26T06:15:06;17.50;;;8.18;;
84676;SDS011;74901;55.024;73.254;2024-02-26T06:17:47;15.48;;;6.15;;
84676;SDS011;74901;55.024;73.254;2024-02-26T06:20:16;16.52;;;6.55;;
84676;SDS011;74901;55.024;73.254;2024-02-26T06:22:45;19.38;;;6.65;;
84676;SDS011;74901;55.024;73.254;2024-02-26T06:25:16;17.17;;;7.25;;
84676;SDS011;74901;55.024;73.254;2024-02-26T06:27:45;17.50;;;6.82;;
84676;SDS011;74901;55.024;73.254;2024-02-26T06:30:14;16.33;;;6.05;;
84676;SDS011;74901;55.024;73.254;2024-02-26T06:32:43;15.10;;;6.25;;
84676;SDS011;74901;55.024;73.254;2024-02-26T06:35:11;16.75;;;6.43;;
84676;SDS011;74901;55.024;73.254;2024-02-26T06:37:40;20.02;;;6.47;;
84676;SDS011;74901;55.024;73.254;2024-02-26T06:40:09;14.45;;;5.57;;
84676;SDS011;74901;55.024;73.254;2024-02-26T06:42:40;21.15;;;8.50;;
84676;SDS011;74901;55.024;73.254;2024-02-26T06:45:09;12.80;;;5.32;;
84676;SDS011;74901;55.024;73.254;2024-02-26T06:47:38;15.80;;;5.80;;
84676;SDS011;74901;55.024;73.254;2024-02-26T06:50:07;14.00;;;6.05;;
84676;SDS011;74901;55.024;73.254;2024-02-26T06:52:37;15.77;;;6.05;;
84676;SDS011;74901;55.024;73.254;2024-02-26T06:55:05;14.90;;;5.47;;
84676;SDS011;74901;55.024;73.254;2024-02-26T06:57:34;17.10;;;6.50;;
84676;SDS011;74901;55.024;73.254;2024-02-26T07:00:06;12.90;;;5.72;;
84676;SDS011;74901;55.024;73.254;2024-02-26T07:02:41;15.68;;;6.35;;
84676;SDS011;74901;55.024;73.254;2024-02-26T07:05:09;20.50;;;5.70;;
84676;SDS011;74901;55.024;73.254;2024-02-26T07:07:39;16.85;;;6.47;;
84676;SDS011;74901;55.024;73.254;2024-02-26T07:10:08;14.82;;;5.90;;
84676;SDS011;74901;55.024;73.254;2024-02-26T07:12:38;18.65;;;5.95;;
84676;SDS011;74901;55.024;73.254;2024-02-26T07:15:09;14.18;;;7.38;;
84676;SDS011;74901;55.024;73.254;2024-02-26T07:17:38;18.27;;;7.47;;
84676;SDS011;74901;55.024;73.254;2024-02-26T07:20:13;17.08;;;6.60;;
84676;SDS011;74901;55.024;73.254;2024-02-26T07:22:44;14.45;;;5.30;;
84676;SDS011;74901;55.024;73.254;2024-02-26T07:25:12;16.63;;;6.57;;
84676;SDS011;74901;55.024;73.254;2024-02-26T07:27:42;14.63;;;5.53;;
84676;SDS011;74901;55.024;73.254;2024-02-26T07:30:13;17.35;;;6.60;;
84676;SDS011;74901;55.024;73.254;2024-02-26T07:32:42;18.05;;;6.53;;
84676;SDS011;74901;55.024;73.254;2024-02-26T07:37:39;11.52;;;5.50;;
84676;SDS011;74901;55.024;73.254;2024-02-26T07:40:09;13.82;;;4.53;;
84676;SDS011;74901;55.024;73.254;2024-02-26T07:42:38;14.70;;;5.80;;
84676;SDS011;74901;55.024;73.254;2024-02-26T07:45:07;15.15;;;6.10;;
84676;SDS011;74901;55.024;73.254;2024-02-26T07:47:38;17.80;;;8.23;;
84676;SDS011;74901;55.024;73.254;2024-02-26T07:50:07;18.10;;;6.57;;
84676;SDS011;74901;55.024;73.254;2024-02-26T07:52:37;14.75;;;6.50;;
84676;SDS011;74901;55.024;73.254;2024-02-26T07:55:07;16.38;;;6.35;;
84676;SDS011;74901;55.024;73.254;2024-02-26T07:57:36;13.55;;;5.57;;
84676;SDS011;74901;55.024;73.254;2024-02-26T08:00:05;14.77;;;6.32;;
84676;SDS011;74901;55.024;73.254;2024-02-26T08:02:35;12.23;;;5.30;;
84676;SDS011;74901;55.024;73.254;2024-02-26T08:05:07;14.23;;;5.07;;
84676;SDS011;74901;55.024;73.254;2024-02-26T08:07:36;16.60;;;6.00;;
84676;SDS011;74901;55.024;73.254;2024-02-26T08:10:05;15.20;;;6.22;;
84676;SDS011;74901;55.024;73.254;2024-02-26T08:12:34;15.40;;;6.30;;
84676;SDS011;74901;55.024;73.254;2024-02-26T08:15:03;14.52;;;6.35;;
84676;SDS011;74901;55.024;73.254;2024-02-26T08:17:33;13.82;;;5.90;;
84676;SDS011;74901;55.024;73.254;2024-02-26T08:20:02;15.15;;;5.57;;
84676;SDS011;74901;55.024;73.254;2024-02-26T08:22:32;13.27;;;5.35;;
84676;SDS011;74901;55.024;73.254;2024-02-26T08:25:02;13.00;;;5.00;;
84676;SDS011;74901;55.024;73.254;2024-02-26T08:27:33;14.27;;;5.60;;
84676;SDS011;74901;55.024;73.254;2024-02-26T08:30:01;14.90;;;5.45;;
84676;SDS011;74901;55.024;73.254;2024-02-26T08:32:30;15.32;;;5.20;;
84676;SDS011;74901;55.024;73.254;2024-02-26T08:34:59;13.98;;;5.57;;
84676;SDS011;74901;55.024;73.254;2024-02-26T08:37:28;14.43;;;5.45;;
84676;SDS011;74901;55.024;73.254;2024-02-26T08:39:58;13.05;;;5.50;;
84676;SDS011;74901;55.024;73.254;2024-02-26T08:42:27;14.73;;;5.50;;
84676;SDS011;74901;55.024;73.254;2024-02-26T08:44:55;13.32;;;5.07;;
84676;SDS011;74901;55.024;73.254;2024-02-26T08:47:26;14.43;;;4.75;;
84676;SDS011;74901;55.024;73.254;2024-02-26T08:49:54;14.85;;;5.65;;
84676;SDS011;74901;55.024;73.254;2024-02-26T08:52:23;14.60;;;5.53;;
84676;SDS011;74901;55.024;73.254;2024-02-26T08:54:52;13.23;;;4.70;;
84676;SDS011;74901;55.024;73.254;2024-02-26T08:57:22;14.13;;;4.13;;
84676;SDS011;74901;55.024;73.254;2024-02-26T08:59:54;15.70;;;5.95;;
84676;SDS011;74901;55.024;73.254;2024-02-26T09:02:23;13.18;;;5.85;;
84676;SDS011;74901;55.024;73.254;2024-02-26T09:04:51;14.35;;;5.93;;
84676;SDS011;74901;55.024;73.254;2024-02-26T09:09:49;16.42;;;6.45;;
84676;SDS011;74901;55.024;73.254;2024-02-26T09:12:18;14.23;;;5.22;;
84676;SDS011;74901;55.024;73.254;2024-02-26T09:14:48;13.02;;;5.80;;
84676;SDS011;74901;55.024;73.254;2024-02-26T09:17:18;13.05;;;5.10;;
84676;SDS011;74901;55.024;73.254;2024-02-26T09:19:46;20.38;;;6.78;;
84676;SDS011;74901;55.024;73.254;2024-02-26T09:22:15;21.65;;;7.45;;
84676;SDS011;74901;55.024;73.254;2024-02-26T09:24:44;23.55;;;8.00;;
84676;SDS011;74901;55.024;73.254;2024-02-26T09:27:13;23.20;;;7.00;;
84676;SDS011;74901;55.024;73.254;2024-02-26T09:32:12;17.48;;;6.75;;
84676;SDS011;74901;55.024;73.254;2024-02-26T09:34:41;19.48;;;7.88;;
84676;SDS011;74901;55.024;73.254;2024-02-26T09:37:10;16.05;;;7.25;;
84676;SDS011;74901;55.024;73.254;2024-02-26T09:39:39;16.98;;;5.65;;
84676;SDS011;74901;55.024;73.254;2024-02-26T09:42:08;12.05;;;5.68;;
84676;SDS011;74901;55.024;73.254;2024-02-26T09:44:40;17.52;;;6.22;;
84676;SDS011;74901;55.024;73.254;2024-02-26T09:47:13;17.17;;;6.25;;
84676;SDS011;74901;55.024;73.254;2024-02-26T09:49:45;12.23;;;5.35;;
84676;SDS011;74901;55.024;73.254;2024-02-26T09:52:15;16.58;;;6.35;;
84676;SDS011;74901;55.024;73.254;2024-02-26T09:54:47;14.00;;;5.68;;
84676;SDS011;74901;55.024;73.254;2024-02-26T09:57:16;13.38;;;5.50;;
84676;SDS011;74901;55.024;73.254;2024-02-26T09:59:45;16.65;;;6.70;;
84676;SDS011;74901;55.024;73.254;2024-02-26T10:02:20;18.17;;;6.82;;
84676;SDS011;74901;55.024;73.254;2024-02-26T10:04:50;16.52;;;6.85;;
84676;SDS011;74901;55.024;73.254;2024-02-26T10:07:22;14.40;;;6.03;;
84676;SDS011;74901;55.024;73.254;2024-02-26T10:09:50;20.02;;;6.45;;
84676;SDS011;74901;55.024;73.254;2024-02-26T10:12:19;13.27;;;5.85;;
84676;SDS011;74901;55.024;73.254;2024-02-26T10:14:49;13.20;;;5.32;;
84676;SDS011;74901;55.024;73.254;2024-02-26T10:17:18;18.45;;;6.63;;
84676;SDS011;74901;55.024;73.254;2024-02-26T10:19:49;12.20;;;5.88;;
84676;SDS011;74901;55.024;73.254;2024-02-26T10:22:21;13.88;;;6.40;;
84676;SDS011;74901;55.024;73.254;2024-02-26T10:27:18;15.55;;;5.85;;
84676;SDS011;74901;55.024;73.254;2024-02-26T10:29:47;18.98;;;6.97;;
84676;SDS011;74901;55.024;73.254;2024-02-26T10:32:17;17.90;;;6.60;;
84676;SDS011;74901;55.024;73.254;2024-02-26T10:34:48;14.30;;;5.90;;
84676;SDS011;74901;55.024;73.254;2024-02-26T10:37:23;15.15;;;6.90;;
84676;SDS011;74901;55.024;73.254;2024-02-26T10:39:52;14.55;;;6.00;;
84676;SDS011;74901;55.024;73.254;2024-02-26T10:42:21;14.90;;;6.85;;
84676;SDS011;74901;55.024;73.254;2024-02-26T10:44:50;17.20;;;6.75;;
84676;SDS011;74901;55.024;73.254;2024-02-26T10:47:18;15.10;;;5.75;;
84676;SDS011;74901;55.024;73.254;2024-02-26T10:49:50;19.20;;;7.53;;
84676;SDS011;74901;55.024;73.254;2024-02-26T10:52:20;19.77;;;6.68;;
84676;SDS011;74901;55.024;73.254;2024-02-26T10:54:52;21.95;;;7.30;;
84676;SDS011;74901;55.024;73.254;2024-02-26T10:57:25;22.33;;;9.27;;
84676;SDS011;74901;55.024;73.254;2024-02-26T10:59:58;13.65;;;6.38;;
84676;SDS011;74901;55.024;73.254;2024-02-26T11:02:31;17.20;;;6.30;;
84676;SDS011;74901;55.024;73.254;2024-02-26T11:05:03;20.13;;;7.00;;
84676;SDS011;74901;55.024;73.254;2024-02-26T11:07:33;18.65;;;7.75;;
84676;SDS011;74901;55.024;73.254;2024-02-26T11:10:03;17.70;;;7.55;;
84676;SDS011;74901;55.024;73.254;2024-02-26T11:12:34;20.05;;;8.65;;
84676;SDS011;74901;55.024;73.254;2024-02-26T11:15:04;19.67;;;7.80;;
84676;SDS011;74901;55.024;73.254;2024-02-26T11:17:34;18.10;;;7.47;;
84676;SDS011;74901;55.024;73.254;2024-02-26T11:20:06;27.55;;;10.73;;
84676;SDS011;74901;55.024;73.254;2024-02-26T11:25:09;16.90;;;8.00;;
84676;SDS011;74901;55.024;73.254;2024-02-26T11:27:39;13.40;;;5.95;;
84676;SDS011;74901;55.024;73.254;2024-02-26T11:30:11;17.20;;;6.97;;
84676;SDS011;74901;55.024;73.254;2024-02-26T11:32:44;18.35;;;8.00;;
84676;SDS011;74901;55.024;73.254;2024-02-26T11:35:15;21.25;;;6.95;;
84676;SDS011;74901;55.024;73.254;2024-02-26T11:37:51;18.70;;;7.03;;
84676;SDS011;74901;55.024;73.254;2024-02-26T11:40:22;15.32;;;7.72;;
84676;SDS011;74901;55.024;73.254;2024-02-26T11:42:52;20.60;;;7.93;;
84676;SDS011;74901;55.024;73.254;2024-02-26T11:48:21;19.33;;;7.45;;
84676;SDS011;74901;55.024;73.254;2024-02-26T11:50:54;15.23;;;6.13;;
84676;SDS011;74901;55.024;73.254;2024-02-26T11:53:24;19.42;;;6.05;;
84676;SDS011;74901;55.024;73.254;2024-02-26T11:56:13;17.52;;;7.30;;
84676;SDS011;74901;55.024;73.254;2024-02-26T11:58:49;15.02;;;6.32;;
84676;SDS011;74901;55.024;73.254;2024-02-26T12:01:43;15.07;;;6.35;;
84676;SDS011;74901;55.024;73.254;2024-02-26T12:04:17;16.88;;;6.20;;
84676;SDS011;74901;55.024;73.254;2024-02-26T12:06:50;16.55;;;5.43;;
84676;SDS011;74901;55.024;73.254;2024-02-26T12:09:35;18.88;;;7.78;;
84676;SDS011;74901;55.024;73.254;2024-02-26T12:12:05;18.10;;;7.80;;
84676;SDS011;74901;55.024;73.254;2024-02-26T12:14:36;14.70;;;6.63;;
84676;SDS011;74901;55.024;73.254;2024-02-26T12:17:06;13.98;;;7.05;;
84676;SDS011;74901;55.024;73.254;2024-02-26T12:19:43;14.40;;;6.50;;
84676;SDS011;74901;55.024;73.254;2024-02-26T12:22:14;20.48;;;7.22;;
84676;SDS011;74901;55.024;73.254;2024-02-26T12:24:43;19.73;;;6.82;;
84676;SDS011;74901;55.024;73.254;2024-02-26T12:27:12;16.13;;;6.22;;
84676;SDS011;74901;55.024;73.254;2024-02-26T12:34:37;16.27;;;6.20;;
84676;SDS011;74901;55.024;73.254;2024-02-26T12:37:06;15.65;;;5.65;;
84676;SDS011;74901;55.024;73.254;2024-02-26T12:39:38;17.02;;;6.40;;
84676;SDS011;74901;55.024;73.254;2024-02-26T12:42:07;15.80;;;6.47;;
84676;SDS011;74901;55.024;73.254;2024-02-26T12:47:05;14.50;;;5.60;;
84676;SDS011;74901;55.024;73.254;2024-02-26T12:49:34;14.52;;;5.75;;
84676;SDS011;74901;55.024;73.254;2024-02-26T12:52:03;16.75;;;6.40;;
84676;SDS011;74901;55.024;73.254;2024-02-26T12:54:33;14.52;;;6.10;;
84676;SDS011;74901;55.024;73.254;2024-02-26T12:57:06;14.10;;;5.75;;
84676;SDS011;74901;55.024;73.254;2024-02-26T12:59:37;17.35;;;6.70;;
84676;SDS011;74901;55.024;73.254;2024-02-26T13:04:35;13.10;;;6.07;;
84676;SDS011;74901;55.024;73.254;2024-02-26T13:07:04;15.35;;;6.57;;
84676;SDS011;74901;55.024;73.254;2024-02-26T13:09:36;17.20;;;6.72;;
84676;SDS011;74901;55.024;73.254;2024-02-26T13:12:08;17.77;;;6.82;;
84676;SDS011;74901;55.024;73.254;2024-02-26T13:14:37;13.45;;;6.78;;
84676;SDS011;74901;55.024;73.254;2024-02-26T13:17:06;18.35;;;7.18;;
84676;SDS011;74901;55.024;73.254;2024-02-26T13:22:22;16.75;;;7.47;;
84676;SDS011;74901;55.024;73.254;2024-02-26T13:24:55;17.70;;;7.88;;
84676;SDS011;74901;55.024;73.254;2024-02-26T13:27:26;22.05;;;8.48;;
84676;SDS011;74901;55.024;73.254;2024-02-26T13:30:05;19.42;;;8.05;;
84676;SDS011;74901;55.024;73.254;2024-02-26T13:32:37;21.02;;;9.10;;
84676;SDS011;74901;55.024;73.254;2024-02-26T13:35:07;21.00;;;7.72;;
84676;SDS011;74901;55.024;73.254;2024-02-26T13:37:37;16.67;;;6.97;;
84676;SDS011;74901;55.024;73.254;2024-02-26T13:40:07;15.85;;;7.82;;
84676;SDS011;74901;55.024;73.254;2024-02-26T13:42:39;17.65;;;6.88;;
84676;SDS011;74901;55.024;73.254;2024-02-26T13:45:08;18.67;;;8.48;;
84676;SDS011;74901;55.024;73.254;2024-02-26T13:50:05;17.27;;;6.88;;
84676;SDS011;74901;55.024;73.254;2024-02-26T13:52:35;17.42;;;7.18;;
84676;SDS011;74901;55.024;73.254;2024-02-26T13:55:03;18.15;;;7.35;;
84676;SDS011;74901;55.024;73.254;2024-02-26T13:57:35;16.85;;;6.72;;
84676;SDS011;74901;55.024;73.254;2024-02-26T14:00:07;17.00;;;7.20;;
84676;SDS011;74901;55.024;73.254;2024-02-26T14:02:40;18.33;;;7.85;;
84676;SDS011;74901;55.024;73.254;2024-02-26T14:05:09;16.90;;;7.68;;
84676;SDS011;74901;55.024;73.254;2024-02-26T14:07:39;14.48;;;6.28;;
84676;SDS011;74901;55.024;73.254;2024-02-26T14:10:08;12.68;;;6.68;;
84676;SDS011;74901;55.024;73.254;2024-02-26T14:12:39;15.68;;;5.53;;
84676;SDS011;74901;55.024;73.254;2024-02-26T14:15:11;18.52;;;7.43;;
84676;SDS011;74901;55.024;73.254;2024-02-26T14:17:40;16.48;;;6.15;;
84676;SDS011;74901;55.024;73.254;2024-02-26T14:20:09;12.05;;;5.63;;
84676;SDS011;74901;55.024;73.254;2024-02-26T14:25:06;12.55;;;5.57;;
84676;SDS011;74901;55.024;73.254;2024-02-26T14:27:37;12.85;;;5.88;;
84676;SDS011;74901;55.024;73.254;2024-02-26T14:30:06;18.63;;;6.93;;
84676;SDS011;74901;55.024;73.254;2024-02-26T14:32:37;19.40;;;8.23;;
84676;SDS011;74901;55.024;73.254;2024-02-26T14:35:07;17.15;;;7.10;;
84676;SDS011;74901;55.024;73.254;2024-02-26T14:37:36;16.27;;;7.00;;
84676;SDS011;74901;55.024;73.254;2024-02-26T14:40:05;15.90;;;7.25;;
84676;SDS011;74901;55.024;73.254;2024-02-26T14:42:35;20.45;;;8.00;;
84676;SDS011;74901;55.024;73.254;2024-02-26T14:45:05;20.88;;;9.02;;
84676;SDS011;74901;55.024;73.254;2024-02-26T14:47:40;17.38;;;8.43;;
84676;SDS011;74901;55.024;73.254;2024-02-26T14:50:10;16.85;;;6.90;;
84676;SDS011;74901;55.024;73.254;2024-02-26T14:52:38;18.83;;;7.70;;
84676;SDS011;74901;55.024;73.254;2024-02-26T14:55:08;19.95;;;8.27;;
84676;SDS011;74901;55.024;73.254;2024-02-26T14:57:37;20.10;;;7.07;;
84676;SDS011;74901;55.024;73.254;2024-02-26T15:00:06;17.35;;;7.25;;
84676;SDS011;74901;55.024;73.254;2024-02-26T15:02:35;20.17;;;8.43;;
84676;SDS011;74901;55.024;73.254;2024-02-26T15:05:06;28.92;;;10.90;;
84676;SDS011;74901;55.024;73.254;2024-02-26T15:07:40;19.58;;;8.40;;
84676;SDS011;74901;55.024;73.254;2024-02-26T15:10:09;25.13;;;10.20;;
84676;SDS011;74901;55.024;73.254;2024-02-26T15:12:38;22.20;;;9.00;;
84676;SDS011;74901;55.024;73.254;2024-02-26T15:15:07;18.38;;;8.13;;
84676;SDS011;74901;55.024;73.254;2024-02-26T15:20:07;20.42;;;7.95;;